sensor_id;sensor_type;location;lat;lon;timestamp;P1;durP1;ratioP1;P2;durP2;ratioP2
12407;SDS011;6268;48.188;17.134;2024-03-22T00:01:57;10.85;;;9.70;;
12407;SDS011;6268;48.188;17.134;2024-03-22T00:05:18;11.35;;;10.43;;
12407;SDS011;6268;48.188;17.134;2024-03-22T00:08:38;8.95;;;8.25;;
12407;SDS011;6268;48.188;17.134;2024-03-22T00:11:59;22.83;;;20.75;;
12407;SDS011;6268;48.188;17.134;2024-03-22T00:15:19;9.73;;;8.93;;
12407;SDS011;6268;48.188;17.134;2024-03-22T00:18:38;8.35;;;7.70;;
12407;SDS011;6268;48.188;17.134;2024-03-22T00:21:59;6.38;;;5.78;;
12407;SDS011;6268;48.188;17.134;2024-03-22T00:25:20;6.90;;;6.20;;
12407;SDS011;6268;48.188;17.134;2024-03-22T00:28:40;7.60;;;6.97;;
12407;SDS011;6268;48.188;17.134;2024-03-22T00:32:00;7.18;;;6.68;;
12407;SDS011;6268;48.188;17.134;2024-03-22T00:35:20;9.40;;;8.52;;
12407;SDS011;6268;48.188;17.134;2024-03-22T00:38:40;6.32;;;5.93;;
12407;SDS011;6268;48.188;17.134;2024-03-22T00:42:02;6.97;;;6.47;;
12407;SDS011;6268;48.188;17.134;2024-03-22T00:45:22;6.50;;;6.10;;
12407;SDS011;6268;48.188;17.134;2024-03-22T00:48:42;7.30;;;6.60;;
12407;SDS011;6268;48.188;17.134;2024-03-22T00:52:02;8.43;;;7.72;;
12407;SDS011;6268;48.188;17.134;2024-03-22T00:55:22;8.70;;;7.82;;
12407;SDS011;6268;48.188;17.134;2024-03-22T00:58:43;7.30;;;6.72;;
12407;SDS011;6268;48.188;17.134;2024-03-22T01:02:04;8.00;;;7.40;;
12407;SDS011;6268;48.188;17.134;2024-03-22T01:05:24;8.27;;;7.50;;
12407;SDS011;6268;48.188;17.134;2024-03-22T01:08:49;10.30;;;9.32;;
12407;SDS011;6268;48.188;17.134;2024-03-22T01:12:10;10.00;;;9.00;;
12407;SDS011;6268;48.188;17.134;2024-03-22T01:15:32;8.85;;;8.07;;
12407;SDS011;6268;48.188;17.134;2024-03-22T01:18:52;9.43;;;8.45;;
12407;SDS011;6268;48.188;17.134;2024-03-22T01:22:11;9.90;;;9.00;;
12407;SDS011;6268;48.188;17.134;2024-03-22T01:25:32;9.32;;;8.52;;
12407;SDS011;6268;48.188;17.134;2024-03-22T01:28:53;10.48;;;9.35;;
12407;SDS011;6268;48.188;17.134;2024-03-22T01:32:14;10.52;;;9.63;;
12407;SDS011;6268;48.188;17.134;2024-03-22T01:35:34;10.23;;;9.43;;
12407;SDS011;6268;48.188;17.134;2024-03-22T01:38:55;10.68;;;9.70;;
12407;SDS011;6268;48.188;17.134;2024-03-22T01:42:14;12.38;;;10.50;;
12407;SDS011;6268;48.188;17.134;2024-03-22T01:45:35;12.15;;;11.13;;
12407;SDS011;6268;48.188;17.134;2024-03-22T01:48:56;12.05;;;11.05;;
12407;SDS011;6268;48.188;17.134;2024-03-22T01:52:18;13.18;;;12.07;;
12407;SDS011;6268;48.188;17.134;2024-03-22T01:55:38;11.80;;;10.80;;
12407;SDS011;6268;48.188;17.134;2024-03-22T01:58:58;12.98;;;11.88;;
12407;SDS011;6268;48.188;17.134;2024-03-22T02:02:20;13.98;;;12.85;;
12407;SDS011;6268;48.188;17.134;2024-03-22T02:05:43;13.35;;;12.15;;
12407;SDS011;6268;48.188;17.134;2024-03-22T02:09:02;13.82;;;12.57;;
12407;SDS011;6268;48.188;17.134;2024-03-22T02:12:23;14.95;;;13.75;;
12407;SDS011;6268;48.188;17.134;2024-03-22T02:15:43;15.43;;;13.90;;
12407;SDS011;6268;48.188;17.134;2024-03-22T02:19:05;14.52;;;13.32;;
12407;SDS011;6268;48.188;17.134;2024-03-22T02:22:28;15.63;;;14.32;;
12407;SDS011;6268;48.188;17.134;2024-03-22T02:25:52;15.52;;;14.13;;
12407;SDS011;6268;48.188;17.134;2024-03-22T02:29:13;16.30;;;14.70;;
12407;SDS011;6268;48.188;17.134;2024-03-22T02:32:32;15.88;;;14.35;;
12407;SDS011;6268;48.188;17.134;2024-03-22T02:35:53;16.63;;;15.13;;
12407;SDS011;6268;48.188;17.134;2024-03-22T02:39:15;17.55;;;14.75;;
12407;SDS011;6268;48.188;17.134;2024-03-22T02:42:34;16.30;;;14.90;;
12407;SDS011;6268;48.188;17.134;2024-03-22T02:45:55;18.85;;;14.27;;
12407;SDS011;6268;48.188;17.134;2024-03-22T02:49:14;16.30;;;14.80;;
12407;SDS011;6268;48.188;17.134;2024-03-22T02:52:35;16.73;;;15.23;;
12407;SDS011;6268;48.188;17.134;2024-03-22T02:55:59;15.55;;;14.20;;
12407;SDS011;6268;48.188;17.134;2024-03-22T02:59:18;17.10;;;15.60;;
12407;SDS011;6268;48.188;17.134;2024-03-22T03:02:39;17.98;;;16.10;;
12407;SDS011;6268;48.188;17.134;2024-03-22T03:05:59;17.00;;;15.30;;
12407;SDS011;6268;48.188;17.134;2024-03-22T03:09:18;17.08;;;15.65;;
12407;SDS011;6268;48.188;17.134;2024-03-22T03:12:41;16.60;;;14.90;;
12407;SDS011;6268;48.188;17.134;2024-03-22T03:16:02;17.73;;;16.05;;
12407;SDS011;6268;48.188;17.134;2024-03-22T03:19:21;17.20;;;15.45;;
12407;SDS011;6268;48.188;17.134;2024-03-22T03:22:42;17.83;;;16.00;;
12407;SDS011;6268;48.188;17.134;2024-03-22T03:26:01;18.55;;;16.63;;
12407;SDS011;6268;48.188;17.134;2024-03-22T03:29:23;17.13;;;15.73;;
12407;SDS011;6268;48.188;17.134;2024-03-22T03:32:44;18.15;;;16.30;;
12407;SDS011;6268;48.188;17.134;2024-03-22T03:36:04;18.73;;;16.83;;
12407;SDS011;6268;48.188;17.134;2024-03-22T03:39:26;18.27;;;16.63;;
12407;SDS011;6268;48.188;17.134;2024-03-22T03:42:47;17.15;;;15.52;;
12407;SDS011;6268;48.188;17.134;2024-03-22T03:46:09;18.45;;;16.75;;
12407;SDS011;6268;48.188;17.134;2024-03-22T03:49:28;18.80;;;17.05;;
12407;SDS011;6268;48.188;17.134;2024-03-22T03:52:49;17.83;;;16.33;;
12407;SDS011;6268;48.188;17.134;2024-03-22T03:56:08;18.90;;;17.20;;
12407;SDS011;6268;48.188;17.134;2024-03-22T03:59:29;19.10;;;17.50;;
12407;SDS011;6268;48.188;17.134;2024-03-22T04:02:51;18.92;;;17.20;;
12407;SDS011;6268;48.188;17.134;2024-03-22T04:06:10;18.75;;;16.85;;
12407;SDS011;6268;48.188;17.134;2024-03-22T04:09:31;17.92;;;16.20;;
12407;SDS011;6268;48.188;17.134;2024-03-22T04:12:50;18.15;;;16.45;;
12407;SDS011;6268;48.188;17.134;2024-03-22T04:16:10;18.48;;;16.48;;
12407;SDS011;6268;48.188;17.134;2024-03-22T04:19:32;19.23;;;17.33;;
12407;SDS011;6268;48.188;17.134;2024-03-22T04:22:52;18.63;;;16.98;;
12407;SDS011;6268;48.188;17.134;2024-03-22T04:26:12;19.42;;;17.58;;
12407;SDS011;6268;48.188;17.134;2024-03-22T04:29:32;18.77;;;16.85;;
12407;SDS011;6268;48.188;17.134;2024-03-22T04:32:52;18.65;;;16.95;;
12407;SDS011;6268;48.188;17.134;2024-03-22T04:36:14;20.88;;;18.88;;
12407;SDS011;6268;48.188;17.134;2024-03-22T04:39:37;21.50;;;19.38;;
12407;SDS011;6268;48.188;17.134;2024-03-22T04:42:57;19.70;;;17.88;;
12407;SDS011;6268;48.188;17.134;2024-03-22T04:46:17;20.70;;;18.65;;
12407;SDS011;6268;48.188;17.134;2024-03-22T04:49:38;29.17;;;25.15;;
12407;SDS011;6268;48.188;17.134;2024-03-22T04:52:59;21.30;;;19.30;;
12407;SDS011;6268;48.188;17.134;2024-03-22T04:56:19;19.73;;;17.83;;
12407;SDS011;6268;48.188;17.134;2024-03-22T04:59:38;20.15;;;18.25;;
12407;SDS011;6268;48.188;17.134;2024-03-22T05:02:59;19.33;;;17.50;;
12407;SDS011;6268;48.188;17.134;2024-03-22T05:06:18;19.25;;;17.45;;
12407;SDS011;6268;48.188;17.134;2024-03-22T05:09:40;18.67;;;16.88;;
12407;SDS011;6268;48.188;17.134;2024-03-22T05:13:01;18.88;;;17.15;;
12407;SDS011;6268;48.188;17.134;2024-03-22T05:16:21;18.63;;;16.83;;
12407;SDS011;6268;48.188;17.134;2024-03-22T05:19:41;18.27;;;16.63;;
12407;SDS011;6268;48.188;17.134;2024-03-22T05:23:01;18.98;;;17.25;;
12407;SDS011;6268;48.188;17.134;2024-03-22T05:26:24;17.92;;;16.33;;
12407;SDS011;6268;48.188;17.134;2024-03-22T05:29:44;18.13;;;16.50;;
12407;SDS011;6268;48.188;17.134;2024-03-22T05:33:05;21.23;;;19.15;;
12407;SDS011;6268;48.188;17.134;2024-03-22T05:36:25;19.80;;;17.90;;
12407;SDS011;6268;48.188;17.134;2024-03-22T05:39:44;20.35;;;18.48;;
12407;SDS011;6268;48.188;17.134;2024-03-22T05:43:07;19.92;;;18.08;;
12407;SDS011;6268;48.188;17.134;2024-03-22T05:46:28;20.15;;;18.38;;
12407;SDS011;6268;48.188;17.134;2024-03-22T05:49:48;21.05;;;18.95;;
12407;SDS011;6268;48.188;17.134;2024-03-22T05:53:09;19.90;;;18.00;;
12407;SDS011;6268;48.188;17.134;2024-03-22T05:56:29;20.48;;;18.48;;
12407;SDS011;6268;48.188;17.134;2024-03-22T05:59:51;19.98;;;18.20;;
12407;SDS011;6268;48.188;17.134;2024-03-22T06:03:13;19.73;;;17.73;;
12407;SDS011;6268;48.188;17.134;2024-03-22T06:06:33;20.48;;;18.50;;
12407;SDS011;6268;48.188;17.134;2024-03-22T06:09:55;20.00;;;18.00;;
12407;SDS011;6268;48.188;17.134;2024-03-22T06:13:14;20.40;;;18.40;;
12407;SDS011;6268;48.188;17.134;2024-03-22T06:16:36;20.00;;;18.20;;
12407;SDS011;6268;48.188;17.134;2024-03-22T06:19:55;18.55;;;16.85;;
12407;SDS011;6268;48.188;17.134;2024-03-22T06:23:15;19.08;;;17.10;;
12407;SDS011;6268;48.188;17.134;2024-03-22T06:26:36;20.55;;;18.40;;
12407;SDS011;6268;48.188;17.134;2024-03-22T06:29:56;20.42;;;18.45;;
12407;SDS011;6268;48.188;17.134;2024-03-22T06:33:17;19.40;;;17.40;;
12407;SDS011;6268;48.188;17.134;2024-03-22T06:36:37;19.15;;;17.30;;
12407;SDS011;6268;48.188;17.134;2024-03-22T06:39:57;19.95;;;17.98;;
12407;SDS011;6268;48.188;17.134;2024-03-22T06:43:17;18.92;;;17.02;;
12407;SDS011;6268;48.188;17.134;2024-03-22T06:46:39;18.50;;;16.75;;
12407;SDS011;6268;48.188;17.134;2024-03-22T06:50:01;19.10;;;17.38;;
12407;SDS011;6268;48.188;17.134;2024-03-22T06:53:20;19.48;;;17.58;;
12407;SDS011;6268;48.188;17.134;2024-03-22T06:56:41;18.92;;;17.23;;
12407;SDS011;6268;48.188;17.134;2024-03-22T07:00:00;18.48;;;16.60;;
12407;SDS011;6268;48.188;17.134;2024-03-22T07:03:20;20.60;;;18.42;;
12407;SDS011;6268;48.188;17.134;2024-03-22T07:06:42;18.95;;;17.27;;
12407;SDS011;6268;48.188;17.134;2024-03-22T07:10:02;22.02;;;19.73;;
12407;SDS011;6268;48.188;17.134;2024-03-22T07:13:23;18.60;;;16.80;;
12407;SDS011;6268;48.188;17.134;2024-03-22T07:16:44;18.55;;;16.88;;
12407;SDS011;6268;48.188;17.134;2024-03-22T07:20:04;18.65;;;16.75;;
12407;SDS011;6268;48.188;17.134;2024-03-22T07:23:29;16.92;;;15.38;;
12407;SDS011;6268;48.188;17.134;2024-03-22T07:26:49;18.80;;;16.88;;
12407;SDS011;6268;48.188;17.134;2024-03-22T07:30:10;17.30;;;15.68;;
12407;SDS011;6268;48.188;17.134;2024-03-22T07:33:30;17.08;;;15.48;;
12407;SDS011;6268;48.188;17.134;2024-03-22T07:36:51;18.77;;;17.00;;
12407;SDS011;6268;48.188;17.134;2024-03-22T07:40:12;17.90;;;16.30;;
12407;SDS011;6268;48.188;17.134;2024-03-22T07:43:32;17.77;;;16.27;;
12407;SDS011;6268;48.188;17.134;2024-03-22T07:46:54;17.20;;;15.57;;
12407;SDS011;6268;48.188;17.134;2024-03-22T07:50:14;17.02;;;15.30;;
12407;SDS011;6268;48.188;17.134;2024-03-22T07:53:35;16.90;;;15.15;;
12407;SDS011;6268;48.188;17.134;2024-03-22T07:56:57;19.73;;;17.92;;
12407;SDS011;6268;48.188;17.134;2024-03-22T08:00:16;17.63;;;16.02;;
12407;SDS011;6268;48.188;17.134;2024-03-22T08:03:37;17.17;;;15.57;;
12407;SDS011;6268;48.188;17.134;2024-03-22T08:06:57;16.33;;;14.82;;
12407;SDS011;6268;48.188;17.134;2024-03-22T08:10:18;17.23;;;15.23;;
12407;SDS011;6268;48.188;17.134;2024-03-22T08:13:40;16.80;;;15.18;;
12407;SDS011;6268;48.188;17.134;2024-03-22T08:17:00;15.02;;;13.65;;
12407;SDS011;6268;48.188;17.134;2024-03-22T08:20:21;16.02;;;14.52;;
12407;SDS011;6268;48.188;17.134;2024-03-22T08:23:41;15.15;;;13.73;;
12407;SDS011;6268;48.188;17.134;2024-03-22T08:27:01;16.98;;;15.27;;
12407;SDS011;6268;48.188;17.134;2024-03-22T08:30:23;13.95;;;12.70;;
12407;SDS011;6268;48.188;17.134;2024-03-22T08:33:47;15.10;;;13.70;;
12407;SDS011;6268;48.188;17.134;2024-03-22T08:37:06;15.32;;;14.02;;
12407;SDS011;6268;48.188;17.134;2024-03-22T08:40:26;15.25;;;13.85;;
12407;SDS011;6268;48.188;17.134;2024-03-22T08:43:45;14.57;;;13.27;;
12407;SDS011;6268;48.188;17.134;2024-03-22T08:47:07;15.27;;;13.82;;
12407;SDS011;6268;48.188;17.134;2024-03-22T08:50:29;15.75;;;14.18;;
12407;SDS011;6268;48.188;17.134;2024-03-22T08:53:50;13.77;;;12.50;;
12407;SDS011;6268;48.188;17.134;2024-03-22T08:57:11;14.43;;;13.07;;
12407;SDS011;6268;48.188;17.134;2024-03-22T09:00:30;15.35;;;13.85;;
12407;SDS011;6268;48.188;17.134;2024-03-22T09:03:52;13.85;;;12.57;;
12407;SDS011;6268;48.188;17.134;2024-03-22T09:07:13;14.73;;;13.32;;
12407;SDS011;6268;48.188;17.134;2024-03-22T09:10:32;14.10;;;12.80;;
12407;SDS011;6268;48.188;17.134;2024-03-22T09:13:53;13.60;;;12.27;;
12407;SDS011;6268;48.188;17.134;2024-03-22T09:17:12;12.88;;;11.73;;
12407;SDS011;6268;48.188;17.134;2024-03-22T09:20:34;12.73;;;11.63;;
12407;SDS011;6268;48.188;17.134;2024-03-22T09:23:53;11.52;;;10.52;;
12407;SDS011;6268;48.188;17.134;2024-03-22T09:27:14;11.82;;;10.82;;
12407;SDS011;6268;48.188;17.134;2024-03-22T09:30:37;12.13;;;10.77;;
12407;SDS011;6268;48.188;17.134;2024-03-22T09:33:59;10.55;;;9.63;;
12407;SDS011;6268;48.188;17.134;2024-03-22T09:37:21;10.60;;;9.50;;
12407;SDS011;6268;48.188;17.134;2024-03-22T09:40:41;9.73;;;8.82;;
12407;SDS011;6268;48.188;17.134;2024-03-22T09:44:07;12.32;;;11.13;;
12407;SDS011;6268;48.188;17.134;2024-03-22T09:47:35;11.05;;;10.02;;
12407;SDS011;6268;48.188;17.134;2024-03-22T09:50:55;10.77;;;9.88;;
12407;SDS011;6268;48.188;17.134;2024-03-22T09:54:19;11.93;;;10.73;;
12407;SDS011;6268;48.188;17.134;2024-03-22T09:57:41;10.63;;;9.73;;
12407;SDS011;6268;48.188;17.134;2024-03-22T10:01:01;10.38;;;9.52;;
12407;SDS011;6268;48.188;17.134;2024-03-22T10:04:25;11.10;;;10.13;;
12407;SDS011;6268;48.188;17.134;2024-03-22T10:07:46;10.95;;;9.90;;
12407;SDS011;6268;48.188;17.134;2024-03-22T10:11:07;10.48;;;9.57;;
12407;SDS011;6268;48.188;17.134;2024-03-22T10:14:29;10.20;;;9.30;;
12407;SDS011;6268;48.188;17.134;2024-03-22T10:17:49;11.02;;;9.98;;
12407;SDS011;6268;48.188;17.134;2024-03-22T10:21:09;11.98;;;10.85;;
12407;SDS011;6268;48.188;17.134;2024-03-22T10:24:29;10.98;;;9.98;;
12407;SDS011;6268;48.188;17.134;2024-03-22T10:27:53;11.02;;;9.20;;
12407;SDS011;6268;48.188;17.134;2024-03-22T10:31:15;12.77;;;10.65;;
12407;SDS011;6268;48.188;17.134;2024-03-22T10:34:35;11.30;;;10.30;;
12407;SDS011;6268;48.188;17.134;2024-03-22T10:37:57;11.27;;;10.27;;
12407;SDS011;6268;48.188;17.134;2024-03-22T10:41:18;10.85;;;9.85;;
12407;SDS011;6268;48.188;17.134;2024-03-22T10:44:40;11.45;;;10.40;;
12407;SDS011;6268;48.188;17.134;2024-03-22T10:48:01;10.55;;;9.65;;
12407;SDS011;6268;48.188;17.134;2024-03-22T10:51:29;10.48;;;9.57;;
12407;SDS011;6268;48.188;17.134;2024-03-22T10:54:51;12.45;;;10.27;;
12407;SDS011;6268;48.188;17.134;2024-03-22T10:58:14;10.50;;;9.50;;
12407;SDS011;6268;48.188;17.134;2024-03-22T11:01:35;10.35;;;9.32;;
12407;SDS011;6268;48.188;17.134;2024-03-22T11:04:56;12.00;;;10.75;;
12407;SDS011;6268;48.188;17.134;2024-03-22T11:08:23;10.65;;;9.65;;
12407;SDS011;6268;48.188;17.134;2024-03-22T11:11:48;12.18;;;10.25;;
12407;SDS011;6268;48.188;17.134;2024-03-22T11:15:14;10.57;;;9.48;;
12407;SDS011;6268;48.188;17.134;2024-03-22T11:18:39;10.35;;;9.38;;
12407;SDS011;6268;48.188;17.134;2024-03-22T11:22:00;9.60;;;8.80;;
12407;SDS011;6268;48.188;17.134;2024-03-22T11:25:19;10.15;;;9.20;;
12407;SDS011;6268;48.188;17.134;2024-03-22T11:28:40;9.77;;;8.90;;
12407;SDS011;6268;48.188;17.134;2024-03-22T11:32:00;10.55;;;9.45;;
12407;SDS011;6268;48.188;17.134;2024-03-22T11:35:22;9.77;;;8.88;;
12407;SDS011;6268;48.188;17.134;2024-03-22T11:38:41;12.38;;;11.18;;
12407;SDS011;6268;48.188;17.134;2024-03-22T11:42:02;10.50;;;9.60;;
12407;SDS011;6268;48.188;17.134;2024-03-22T11:45:24;10.32;;;9.25;;
12407;SDS011;6268;48.188;17.134;2024-03-22T11:48:50;11.15;;;9.85;;
12407;SDS011;6268;48.188;17.134;2024-03-22T11:52:12;10.38;;;9.48;;
12407;SDS011;6268;48.188;17.134;2024-03-22T11:55:32;10.27;;;9.30;;
12407;SDS011;6268;48.188;17.134;2024-03-22T11:58:57;10.90;;;9.85;;
12407;SDS011;6268;48.188;17.134;2024-03-22T12:02:18;12.32;;;9.75;;
12407;SDS011;6268;48.188;17.134;2024-03-22T12:05:37;10.70;;;9.70;;
12407;SDS011;6268;48.188;17.134;2024-03-22T12:09:02;9.82;;;8.82;;
12407;SDS011;6268;48.188;17.134;2024-03-22T12:12:22;9.25;;;8.45;;
12407;SDS011;6268;48.188;17.134;2024-03-22T12:15:43;8.70;;;7.82;;
12407;SDS011;6268;48.188;17.134;2024-03-22T12:19:03;8.48;;;7.68;;
12407;SDS011;6268;48.188;17.134;2024-03-22T12:22:23;7.68;;;6.20;;
12407;SDS011;6268;48.188;17.134;2024-03-22T12:25:44;6.45;;;5.85;;
12407;SDS011;6268;48.188;17.134;2024-03-22T12:29:04;5.40;;;4.95;;
12407;SDS011;6268;48.188;17.134;2024-03-22T12:32:25;6.93;;;6.20;;
12407;SDS011;6268;48.188;17.134;2024-03-22T12:35:45;4.82;;;4.43;;
12407;SDS011;6268;48.188;17.134;2024-03-22T12:39:05;4.75;;;3.97;;
12407;SDS011;6268;48.188;17.134;2024-03-22T12:42:26;4.80;;;4.30;;
12407;SDS011;6268;48.188;17.134;2024-03-22T12:45:47;5.03;;;4.60;;
12407;SDS011;6268;48.188;17.134;2024-03-22T12:49:08;4.57;;;4.18;;
12407;SDS011;6268;48.188;17.134;2024-03-22T12:52:30;6.03;;;4.60;;
12407;SDS011;6268;48.188;17.134;2024-03-22T12:55:50;5.72;;;4.28;;
12407;SDS011;6268;48.188;17.134;2024-03-22T12:59:11;4.63;;;4.28;;
12407;SDS011;6268;48.188;17.134;2024-03-22T13:02:38;7.60;;;6.90;;
12407;SDS011;6268;48.188;17.134;2024-03-22T13:05:59;4.40;;;4.03;;
12407;SDS011;6268;48.188;17.134;2024-03-22T13:09:18;5.15;;;4.65;;
12407;SDS011;6268;48.188;17.134;2024-03-22T13:12:39;5.05;;;4.65;;
12407;SDS011;6268;48.188;17.134;2024-03-22T13:16:00;5.35;;;3.65;;
12407;SDS011;6268;48.188;17.134;2024-03-22T13:19:20;7.65;;;4.70;;
12407;SDS011;6268;48.188;17.134;2024-03-22T13:22:43;6.57;;;5.50;;
12407;SDS011;6268;48.188;17.134;2024-03-22T13:26:03;5.47;;;4.97;;
12407;SDS011;6268;48.188;17.134;2024-03-22T13:29:24;4.65;;;4.18;;
12407;SDS011;6268;48.188;17.134;2024-03-22T13:32:46;5.63;;;4.50;;
12407;SDS011;6268;48.188;17.134;2024-03-22T13:36:06;6.70;;;6.10;;
12407;SDS011;6268;48.188;17.134;2024-03-22T13:39:26;6.88;;;6.18;;
12407;SDS011;6268;48.188;17.134;2024-03-22T13:42:46;5.82;;;5.32;;
12407;SDS011;6268;48.188;17.134;2024-03-22T13:46:10;7.25;;;6.32;;
12407;SDS011;6268;48.188;17.134;2024-03-22T13:49:31;6.07;;;5.43;;
12407;SDS011;6268;48.188;17.134;2024-03-22T13:52:52;6.47;;;5.85;;
12407;SDS011;6268;48.188;17.134;2024-03-22T13:56:12;6.72;;;6.15;;
12407;SDS011;6268;48.188;17.134;2024-03-22T13:59:31;8.02;;;7.30;;
12407;SDS011;6268;48.188;17.134;2024-03-22T14:02:53;8.30;;;7.20;;
12407;SDS011;6268;48.188;17.134;2024-03-22T14:06:15;9.68;;;8.70;;
12407;SDS011;6268;48.188;17.134;2024-03-22T14:09:35;8.77;;;7.28;;
12407;SDS011;6268;48.188;17.134;2024-03-22T14:12:56;9.18;;;6.97;;
12407;SDS011;6268;48.188;17.134;2024-03-22T14:16:17;9.35;;;8.18;;
12407;SDS011;6268;48.188;17.134;2024-03-22T14:19:38;7.65;;;6.95;;
12407;SDS011;6268;48.188;17.134;2024-03-22T14:22:59;7.47;;;6.63;;
12407;SDS011;6268;48.188;17.134;2024-03-22T14:26:19;7.22;;;6.60;;
12407;SDS011;6268;48.188;17.134;2024-03-22T14:29:40;6.40;;;5.80;;
12407;SDS011;6268;48.188;17.134;2024-03-22T14:33:00;7.15;;;6.43;;
12407;SDS011;6268;48.188;17.134;2024-03-22T14:36:20;6.43;;;5.55;;
12407;SDS011;6268;48.188;17.134;2024-03-22T14:39:41;6.85;;;5.97;;
12407;SDS011;6268;48.188;17.134;2024-03-22T14:43:03;7.18;;;6.68;;
12407;SDS011;6268;48.188;17.134;2024-03-22T14:46:24;10.27;;;6.57;;
12407;SDS011;6268;48.188;17.134;2024-03-22T14:49:44;9.30;;;8.02;;
12407;SDS011;6268;48.188;17.134;2024-03-22T14:53:04;6.93;;;6.38;;
12407;SDS011;6268;48.188;17.134;2024-03-22T14:56:26;6.80;;;6.15;;
12407;SDS011;6268;48.188;17.134;2024-03-22T14:59:45;6.75;;;6.25;;
12407;SDS011;6268;48.188;17.134;2024-03-22T15:03:06;7.43;;;6.72;;
12407;SDS011;6268;48.188;17.134;2024-03-22T15:06:25;7.28;;;6.57;;
12407;SDS011;6268;48.188;17.134;2024-03-22T15:09:47;7.38;;;6.28;;
12407;SDS011;6268;48.188;17.134;2024-03-22T15:13:08;6.75;;;6.03;;
12407;SDS011;6268;48.188;17.134;2024-03-22T15:16:28;7.28;;;6.53;;
12407;SDS011;6268;48.188;17.134;2024-03-22T15:19:49;7.75;;;7.05;;
12407;SDS011;6268;48.188;17.134;2024-03-22T15:23:09;6.18;;;5.55;;
12407;SDS011;6268;48.188;17.134;2024-03-22T15:26:29;6.93;;;6.32;;
12407;SDS011;6268;48.188;17.134;2024-03-22T15:29:52;6.70;;;6.10;;
12407;SDS011;6268;48.188;17.134;2024-03-22T15:33:12;7.38;;;6.68;;
12407;SDS011;6268;48.188;17.134;2024-03-22T15:36:33;7.22;;;6.53;;
12407;SDS011;6268;48.188;17.134;2024-03-22T15:39:52;6.30;;;5.70;;
12407;SDS011;6268;48.188;17.134;2024-03-22T15:43:18;7.57;;;6.00;;
12407;SDS011;6268;48.188;17.134;2024-03-22T15:46:39;7.60;;;6.90;;
12407;SDS011;6268;48.188;17.134;2024-03-22T15:49:59;8.70;;;7.90;;
12407;SDS011;6268;48.188;17.134;2024-03-22T15:53:20;9.30;;;6.88;;
12407;SDS011;6268;48.188;17.134;2024-03-22T15:56:41;6.32;;;5.82;;
12407;SDS011;6268;48.188;17.134;2024-03-22T16:00:00;7.05;;;6.32;;
12407;SDS011;6268;48.188;17.134;2024-03-22T16:03:22;6.00;;;5.50;;
12407;SDS011;6268;48.188;17.134;2024-03-22T16:06:43;6.43;;;5.82;;
12407;SDS011;6268;48.188;17.134;2024-03-22T16:10:02;5.85;;;5.35;;
12407;SDS011;6268;48.188;17.134;2024-03-22T16:13:23;6.10;;;5.63;;
12407;SDS011;6268;48.188;17.134;2024-03-22T16:16:44;15.23;;;5.93;;
12407;SDS011;6268;48.188;17.134;2024-03-22T16:20:09;6.78;;;5.55;;
12407;SDS011;6268;48.188;17.134;2024-03-22T16:23:30;8.68;;;6.40;;
12407;SDS011;6268;48.188;17.134;2024-03-22T16:26:49;7.00;;;5.90;;
12407;SDS011;6268;48.188;17.134;2024-03-22T16:30:10;7.38;;;5.50;;
12407;SDS011;6268;48.188;17.134;2024-03-22T16:33:31;6.50;;;5.72;;
12407;SDS011;6268;48.188;17.134;2024-03-22T16:36:51;7.88;;;5.78;;
12407;SDS011;6268;48.188;17.134;2024-03-22T16:40:14;7.68;;;6.13;;
12407;SDS011;6268;48.188;17.134;2024-03-22T16:43:35;6.15;;;5.60;;
12407;SDS011;6268;48.188;17.134;2024-03-22T16:46:54;5.32;;;4.82;;
12407;SDS011;6268;48.188;17.134;2024-03-22T16:50:19;6.00;;;5.35;;
12407;SDS011;6268;48.188;17.134;2024-03-22T16:53:40;5.57;;;5.18;;
12407;SDS011;6268;48.188;17.134;2024-03-22T16:57:00;5.25;;;4.80;;
12407;SDS011;6268;48.188;17.134;2024-03-22T17:00:25;7.95;;;5.10;;
12407;SDS011;6268;48.188;17.134;2024-03-22T17:03:45;6.13;;;5.20;;
12407;SDS011;6268;48.188;17.134;2024-03-22T17:07:15;6.40;;;5.57;;
12407;SDS011;6268;48.188;17.134;2024-03-22T17:10:39;7.80;;;6.70;;
12407;SDS011;6268;48.188;17.134;2024-03-22T17:14:00;7.82;;;6.60;;
12407;SDS011;6268;48.188;17.134;2024-03-22T17:17:19;7.53;;;6.53;;
12407;SDS011;6268;48.188;17.134;2024-03-22T17:20:40;9.55;;;6.35;;
12407;SDS011;6268;48.188;17.134;2024-03-22T17:23:59;5.93;;;5.43;;
12407;SDS011;6268;48.188;17.134;2024-03-22T17:27:21;4.80;;;4.40;;
12407;SDS011;6268;48.188;17.134;2024-03-22T17:30:44;4.60;;;4.20;;
12407;SDS011;6268;48.188;17.134;2024-03-22T17:34:07;4.00;;;3.65;;
12407;SDS011;6268;48.188;17.134;2024-03-22T17:37:30;5.00;;;3.63;;
12407;SDS011;6268;48.188;17.134;2024-03-22T17:40:50;4.63;;;4.22;;
12407;SDS011;6268;48.188;17.134;2024-03-22T17:44:11;4.70;;;3.70;;
12407;SDS011;6268;48.188;17.134;2024-03-22T17:47:32;5.60;;;4.13;;
12407;SDS011;6268;48.188;17.134;2024-03-22T17:50:52;4.63;;;4.05;;
12407;SDS011;6268;48.188;17.134;2024-03-22T17:54:11;4.82;;;4.30;;
12407;SDS011;6268;48.188;17.134;2024-03-22T17:57:32;5.85;;;4.90;;
12407;SDS011;6268;48.188;17.134;2024-03-22T18:01:04;7.18;;;5.25;;
12407;SDS011;6268;48.188;17.134;2024-03-22T18:04:25;8.77;;;4.47;;
12407;SDS011;6268;48.188;17.134;2024-03-22T18:07:44;6.93;;;4.85;;
12407;SDS011;6268;48.188;17.134;2024-03-22T18:11:04;11.57;;;4.90;;
12407;SDS011;6268;48.188;17.134;2024-03-22T18:14:25;8.38;;;5.30;;
12407;SDS011;6268;48.188;17.134;2024-03-22T18:17:47;8.13;;;5.20;;
12407;SDS011;6268;48.188;17.134;2024-03-22T18:21:07;11.25;;;5.65;;
12407;SDS011;6268;48.188;17.134;2024-03-22T18:24:29;5.28;;;4.80;;
12407;SDS011;6268;48.188;17.134;2024-03-22T18:27:49;8.55;;;4.75;;
12407;SDS011;6268;48.188;17.134;2024-03-22T18:31:09;5.53;;;4.75;;
12407;SDS011;6268;48.188;17.134;2024-03-22T18:34:31;5.07;;;4.60;;
12407;SDS011;6268;48.188;17.134;2024-03-22T18:37:52;9.48;;;4.80;;
12407;SDS011;6268;48.188;17.134;2024-03-22T18:41:11;9.27;;;4.55;;
12407;SDS011;6268;48.188;17.134;2024-03-22T18:44:32;5.30;;;4.20;;
12407;SDS011;6268;48.188;17.134;2024-03-22T18:47:52;4.55;;;4.13;;
12407;SDS011;6268;48.188;17.134;2024-03-22T18:51:14;4.30;;;3.90;;
12407;SDS011;6268;48.188;17.134;2024-03-22T18:54:34;5.55;;;4.75;;
12407;SDS011;6268;48.188;17.134;2024-03-22T18:57:54;4.97;;;3.85;;
12407;SDS011;6268;48.188;17.134;2024-03-22T19:01:15;5.32;;;4.40;;
12407;SDS011;6268;48.188;17.134;2024-03-22T19:04:35;7.32;;;5.40;;
12407;SDS011;6268;48.188;17.134;2024-03-22T19:07:57;6.00;;;5.38;;
12407;SDS011;6268;48.188;17.134;2024-03-22T19:11:17;8.60;;;7.70;;
12407;SDS011;6268;48.188;17.134;2024-03-22T19:14:36;8.05;;;7.22;;
12407;SDS011;6268;48.188;17.134;2024-03-22T19:17:57;8.77;;;6.85;;
12407;SDS011;6268;48.188;17.134;2024-03-22T19:21:16;8.98;;;8.07;;
12407;SDS011;6268;48.188;17.134;2024-03-22T19:24:38;9.80;;;7.47;;
12407;SDS011;6268;48.188;17.134;2024-03-22T19:27:59;9.35;;;7.95;;
12407;SDS011;6268;48.188;17.134;2024-03-22T19:31:19;8.40;;;7.20;;
12407;SDS011;6268;48.188;17.134;2024-03-22T19:34:40;8.18;;;5.80;;
12407;SDS011;6268;48.188;17.134;2024-03-22T19:38:01;6.00;;;5.50;;
12407;SDS011;6268;48.188;17.134;2024-03-22T19:41:24;8.20;;;6.18;;
12407;SDS011;6268;48.188;17.134;2024-03-22T19:44:43;9.05;;;6.95;;
12407;SDS011;6268;48.188;17.134;2024-03-22T19:48:04;9.60;;;7.68;;
12407;SDS011;6268;48.188;17.134;2024-03-22T19:51:24;7.78;;;6.57;;
12407;SDS011;6268;48.188;17.134;2024-03-22T19:54:44;7.20;;;6.13;;